This is the latest recevied weather packets stored in our database for station/object KMEZ. If no packets are shown the sender has not sent any weather packets the latest 10 day(s).
| Time | Temp. | Humidity | Pressure | Rain* | Wind** | Luminosity | Snow |
|---|---|---|---|---|---|---|---|
| 1777897415 | 15.56° C | 63% | 1013.2 hPa | - | - | - | - |
| 1777896812 | 15.56° C | 63% | 1012.9 hPa | - | - | - | - |
| 1777896214 | 15.56° C | 63% | 1012.9 hPa | - | - | - | - |
| 1777895612 | 15.56° C | 59% | 1012.9 hPa | - | - | - | - |
| 1777895015 | 15.56° C | 59% | 1012.9 hPa | - | - | - | - |
| 1777894415 | 15.56° C | 59% | 1012.5 hPa | - | - | - | - |
| 1777893815 | 15.56° C | 59% | 1012.5 hPa | - | - | - | - |
| 1777893217 | 15.56° C | 59% | 1012.5 hPa | - | - | - | - |
| 1777892613 | 15.56° C | 59% | 1012.5 hPa | - | - | - | - |
| 1777892017 | 15.56° C | 59% | 1012.5 hPa | - | - | - | - |
| 1777890815 | 15.56° C | 59% | 1012.9 hPa | - | - | - | - |
| 1777890212 | 15.56° C | 59% | 1012.9 hPa | - | - | - | - |
| 1777889612 | 15.56° C | 59% | 1012.9 hPa | - | - | - | - |
| 1777889013 | 15.56° C | 59% | 1012.9 hPa | - | - | - | - |
| 1777888418 | 15° C | 67% | 1013.2 hPa | - | - | - | - |
| 1777887815 | 15° C | 67% | 1013.2 hPa | - | - | - | - |
| 1777887214 | 16.67° C | 55% | 1013.2 hPa | - | - | - | - |
| 1777886617 | 16.67° C | 55% | 1013.2 hPa | - | - | - | - |
| 1777886016 | 15.56° C | 59% | 1013.2 hPa | - | - | - | - |
| 1777885418 | 15.56° C | 59% | 1013.2 hPa | - | - | - | - |
| 1777884814 | 15° C | 62% | 1013.2 hPa | - | - | - | - |
| 1777884213 | 15° C | 62% | 1013.2 hPa | - | - | - | - |
| 1777883615 | 15.56° C | 59% | 1013.2 hPa | - | - | - | - |
| 1777883016 | 15.56° C | 59% | 1013.2 hPa | - | - | - | - |
| 1777882414 | 18.89° C | 45% | 1013.5 hPa | - | - | - | - |
* Rain since midnight (hover to see other rain measurements)
** Current wind speed in m/s (hover to see current wind gust speed)